sensor_id;sensor_type;location;lat;lon;timestamp;P1;durP1;ratioP1;P2;durP2;ratioP2
24373;SDS011;12498;50.880;12.096;2023-07-31T00:00:05;7.25;;;2.25;;
24373;SDS011;12498;50.880;12.096;2023-07-31T00:02:33;7.30;;;2.10;;
24373;SDS011;12498;50.880;12.096;2023-07-31T00:04:59;5.43;;;1.92;;
24373;SDS011;12498;50.880;12.096;2023-07-31T00:07:25;9.13;;;2.00;;
24373;SDS011;12498;50.880;12.096;2023-07-31T00:09:51;7.68;;;2.00;;
24373;SDS011;12498;50.880;12.096;2023-07-31T00:12:18;6.25;;;2.20;;
24373;SDS011;12498;50.880;12.096;2023-07-31T00:14:44;7.15;;;2.35;;
24373;SDS011;12498;50.880;12.096;2023-07-31T00:17:10;5.20;;;2.08;;
24373;SDS011;12498;50.880;12.096;2023-07-31T00:19:36;8.50;;;2.25;;
24373;SDS011;12498;50.880;12.096;2023-07-31T00:22:02;7.90;;;2.00;;
24373;SDS011;12498;50.880;12.096;2023-07-31T00:24:28;5.50;;;1.90;;
24373;SDS011;12498;50.880;12.096;2023-07-31T00:26:54;4.80;;;2.30;;
24373;SDS011;12498;50.880;12.096;2023-07-31T00:29:19;7.95;;;2.15;;
24373;SDS011;12498;50.880;12.096;2023-07-31T00:31:45;6.57;;;2.13;;
24373;SDS011;12498;50.880;12.096;2023-07-31T00:34:10;7.72;;;2.10;;
24373;SDS011;12498;50.880;12.096;2023-07-31T00:36:37;13.10;;;2.20;;
24373;SDS011;12498;50.880;12.096;2023-07-31T00:39:03;8.20;;;1.95;;
24373;SDS011;12498;50.880;12.096;2023-07-31T00:41:29;6.15;;;2.22;;
24373;SDS011;12498;50.880;12.096;2023-07-31T00:43:55;8.52;;;2.35;;
24373;SDS011;12498;50.880;12.096;2023-07-31T00:46:21;6.55;;;1.90;;
24373;SDS011;12498;50.880;12.096;2023-07-31T00:48:46;6.63;;;1.90;;
24373;SDS011;12498;50.880;12.096;2023-07-31T00:51:12;8.10;;;2.30;;
24373;SDS011;12498;50.880;12.096;2023-07-31T00:53:39;6.13;;;2.17;;
24373;SDS011;12498;50.880;12.096;2023-07-31T00:56:05;5.32;;;2.10;;
24373;SDS011;12498;50.880;12.096;2023-07-31T00:58:31;6.70;;;2.25;;
24373;SDS011;12498;50.880;12.096;2023-07-31T01:00:57;6.60;;;2.30;;
24373;SDS011;12498;50.880;12.096;2023-07-31T01:03:23;4.05;;;2.05;;
24373;SDS011;12498;50.880;12.096;2023-07-31T01:05:53;6.40;;;1.83;;
24373;SDS011;12498;50.880;12.096;2023-07-31T01:11:27;5.32;;;2.10;;
24373;SDS011;12498;50.880;12.096;2023-07-31T01:13:53;10.45;;;2.28;;
24373;SDS011;12498;50.880;12.096;2023-07-31T01:16:20;6.78;;;2.20;;
24373;SDS011;12498;50.880;12.096;2023-07-31T01:18:45;7.60;;;2.13;;
24373;SDS011;12498;50.880;12.096;2023-07-31T01:24:15;5.53;;;2.13;;
24373;SDS011;12498;50.880;12.096;2023-07-31T01:26:55;10.07;;;2.38;;
24373;SDS011;12498;50.880;12.096;2023-07-31T01:29:56;9.75;;;2.25;;
24373;SDS011;12498;50.880;12.096;2023-07-31T01:32:40;8.43;;;2.33;;
24373;SDS011;12498;50.880;12.096;2023-07-31T01:35:07;5.60;;;2.05;;
24373;SDS011;12498;50.880;12.096;2023-07-31T01:37:33;7.85;;;2.60;;
24373;SDS011;12498;50.880;12.096;2023-07-31T01:39:59;6.20;;;2.40;;
24373;SDS011;12498;50.880;12.096;2023-07-31T01:42:24;9.73;;;2.63;;
24373;SDS011;12498;50.880;12.096;2023-07-31T01:44:50;7.85;;;2.42;;
24373;SDS011;12498;50.880;12.096;2023-07-31T01:47:16;10.93;;;2.30;;
24373;SDS011;12498;50.880;12.096;2023-07-31T01:49:41;10.75;;;2.80;;
24373;SDS011;12498;50.880;12.096;2023-07-31T01:52:07;7.45;;;2.90;;
24373;SDS011;12498;50.880;12.096;2023-07-31T01:54:32;9.40;;;2.20;;
24373;SDS011;12498;50.880;12.096;2023-07-31T01:56:58;8.20;;;2.40;;
24373;SDS011;12498;50.880;12.096;2023-07-31T01:59:24;8.00;;;2.65;;
24373;SDS011;12498;50.880;12.096;2023-07-31T02:01:49;9.27;;;3.20;;
24373;SDS011;12498;50.880;12.096;2023-07-31T02:04:15;8.98;;;2.65;;
24373;SDS011;12498;50.880;12.096;2023-07-31T02:06:41;9.18;;;2.95;;
24373;SDS011;12498;50.880;12.096;2023-07-31T02:09:06;7.43;;;2.30;;
24373;SDS011;12498;50.880;12.096;2023-07-31T02:11:32;7.65;;;2.78;;
24373;SDS011;12498;50.880;12.096;2023-07-31T02:13:57;9.02;;;3.03;;
24373;SDS011;12498;50.880;12.096;2023-07-31T02:16:23;10.00;;;3.25;;
24373;SDS011;12498;50.880;12.096;2023-07-31T02:18:48;8.68;;;2.78;;
24373;SDS011;12498;50.880;12.096;2023-07-31T02:21:14;5.80;;;2.50;;
24373;SDS011;12498;50.880;12.096;2023-07-31T02:23:40;9.25;;;2.78;;
24373;SDS011;12498;50.880;12.096;2023-07-31T02:26:05;8.65;;;2.50;;
24373;SDS011;12498;50.880;12.096;2023-07-31T02:28:31;11.80;;;2.63;;
24373;SDS011;12498;50.880;12.096;2023-07-31T02:30:56;7.05;;;2.45;;
24373;SDS011;12498;50.880;12.096;2023-07-31T02:33:22;5.45;;;2.60;;
24373;SDS011;12498;50.880;12.096;2023-07-31T02:35:48;9.90;;;3.00;;
24373;SDS011;12498;50.880;12.096;2023-07-31T02:38:13;8.80;;;2.97;;
24373;SDS011;12498;50.880;12.096;2023-07-31T02:40:39;9.80;;;2.90;;
24373;SDS011;12498;50.880;12.096;2023-07-31T02:43:06;7.03;;;2.42;;
24373;SDS011;12498;50.880;12.096;2023-07-31T02:45:32;11.45;;;3.03;;
24373;SDS011;12498;50.880;12.096;2023-07-31T02:47:58;10.48;;;2.63;;
24373;SDS011;12498;50.880;12.096;2023-07-31T02:50:23;8.60;;;2.72;;
24373;SDS011;12498;50.880;12.096;2023-07-31T02:52:49;13.85;;;3.30;;
24373;SDS011;12498;50.880;12.096;2023-07-31T02:55:14;12.07;;;3.55;;
24373;SDS011;12498;50.880;12.096;2023-07-31T02:57:40;9.43;;;3.35;;
24373;SDS011;12498;50.880;12.096;2023-07-31T03:00:06;11.25;;;2.90;;
24373;SDS011;12498;50.880;12.096;2023-07-31T03:02:32;8.35;;;3.03;;
24373;SDS011;12498;50.880;12.096;2023-07-31T03:04:58;8.07;;;2.85;;
24373;SDS011;12498;50.880;12.096;2023-07-31T03:07:24;11.27;;;3.30;;
24373;SDS011;12498;50.880;12.096;2023-07-31T03:09:50;8.73;;;3.22;;
24373;SDS011;12498;50.880;12.096;2023-07-31T03:12:15;14.38;;;3.55;;
24373;SDS011;12498;50.880;12.096;2023-07-31T03:14:41;11.52;;;3.70;;
24373;SDS011;12498;50.880;12.096;2023-07-31T03:17:06;9.65;;;3.55;;
24373;SDS011;12498;50.880;12.096;2023-07-31T03:19:32;11.85;;;3.50;;
24373;SDS011;12498;50.880;12.096;2023-07-31T03:21:59;12.68;;;3.50;;
24373;SDS011;12498;50.880;12.096;2023-07-31T03:24:25;10.48;;;3.08;;
24373;SDS011;12498;50.880;12.096;2023-07-31T03:26:51;9.13;;;3.47;;
24373;SDS011;12498;50.880;12.096;2023-07-31T03:29:16;10.55;;;3.60;;
24373;SDS011;12498;50.880;12.096;2023-07-31T03:31:42;9.95;;;3.72;;
24373;SDS011;12498;50.880;12.096;2023-07-31T03:34:07;12.88;;;3.92;;
24373;SDS011;12498;50.880;12.096;2023-07-31T03:36:33;9.60;;;3.50;;
24373;SDS011;12498;50.880;12.096;2023-07-31T03:38:59;6.75;;;3.08;;
24373;SDS011;12498;50.880;12.096;2023-07-31T03:41:24;10.65;;;3.28;;
24373;SDS011;12498;50.880;12.096;2023-07-31T03:43:51;14.75;;;3.75;;
24373;SDS011;12498;50.880;12.096;2023-07-31T03:46:23;9.27;;;3.28;;
24373;SDS011;12498;50.880;12.096;2023-07-31T03:48:51;9.52;;;3.22;;
24373;SDS011;12498;50.880;12.096;2023-07-31T03:51:17;16.20;;;6.28;;
24373;SDS011;12498;50.880;12.096;2023-07-31T03:53:43;13.43;;;6.07;;
24373;SDS011;12498;50.880;12.096;2023-07-31T03:56:09;12.50;;;4.55;;
24373;SDS011;12498;50.880;12.096;2023-07-31T03:58:34;11.13;;;3.40;;
24373;SDS011;12498;50.880;12.096;2023-07-31T04:01:01;12.52;;;3.35;;
24373;SDS011;12498;50.880;12.096;2023-07-31T04:03:28;12.70;;;4.78;;
24373;SDS011;12498;50.880;12.096;2023-07-31T04:05:54;12.40;;;4.38;;
24373;SDS011;12498;50.880;12.096;2023-07-31T04:08:21;12.57;;;3.63;;
24373;SDS011;12498;50.880;12.096;2023-07-31T04:10:47;12.48;;;3.67;;
24373;SDS011;12498;50.880;12.096;2023-07-31T04:13:13;11.40;;;3.35;;
24373;SDS011;12498;50.880;12.096;2023-07-31T04:15:38;9.75;;;3.58;;
24373;SDS011;12498;50.880;12.096;2023-07-31T04:18:04;9.50;;;3.38;;
24373;SDS011;12498;50.880;12.096;2023-07-31T04:20:30;10.90;;;2.78;;
24373;SDS011;12498;50.880;12.096;2023-07-31T04:22:56;14.07;;;3.85;;
24373;SDS011;12498;50.880;12.096;2023-07-31T04:25:21;9.32;;;4.40;;
24373;SDS011;12498;50.880;12.096;2023-07-31T04:27:47;10.70;;;3.75;;
24373;SDS011;12498;50.880;12.096;2023-07-31T04:30:13;7.75;;;3.35;;
24373;SDS011;12498;50.880;12.096;2023-07-31T04:32:39;16.42;;;4.22;;
24373;SDS011;12498;50.880;12.096;2023-07-31T04:35:04;11.65;;;4.68;;
24373;SDS011;12498;50.880;12.096;2023-07-31T04:37:30;10.52;;;4.15;;
24373;SDS011;12498;50.880;12.096;2023-07-31T04:39:56;10.00;;;3.72;;
24373;SDS011;12498;50.880;12.096;2023-07-31T04:42:22;16.13;;;4.55;;
24373;SDS011;12498;50.880;12.096;2023-07-31T04:44:48;14.48;;;5.78;;
24373;SDS011;12498;50.880;12.096;2023-07-31T04:47:13;11.80;;;3.97;;
24373;SDS011;12498;50.880;12.096;2023-07-31T04:49:39;13.68;;;5.30;;
24373;SDS011;12498;50.880;12.096;2023-07-31T04:52:05;14.85;;;7.32;;
24373;SDS011;12498;50.880;12.096;2023-07-31T04:54:30;15.70;;;5.47;;
24373;SDS011;12498;50.880;12.096;2023-07-31T04:56:56;10.73;;;4.30;;
24373;SDS011;12498;50.880;12.096;2023-07-31T04:59:22;13.82;;;4.93;;
24373;SDS011;12498;50.880;12.096;2023-07-31T05:01:47;13.02;;;5.22;;
24373;SDS011;12498;50.880;12.096;2023-07-31T05:04:13;8.18;;;3.67;;
24373;SDS011;12498;50.880;12.096;2023-07-31T05:06:39;16.95;;;6.10;;
24373;SDS011;12498;50.880;12.096;2023-07-31T05:09:05;12.70;;;5.00;;
24373;SDS011;12498;50.880;12.096;2023-07-31T05:11:31;11.27;;;4.60;;
24373;SDS011;12498;50.880;12.096;2023-07-31T05:13:57;12.20;;;5.38;;
24373;SDS011;12498;50.880;12.096;2023-07-31T05:16:23;11.52;;;4.20;;
24373;SDS011;12498;50.880;12.096;2023-07-31T05:18:48;12.80;;;5.28;;
24373;SDS011;12498;50.880;12.096;2023-07-31T05:21:14;9.85;;;4.32;;
24373;SDS011;12498;50.880;12.096;2023-07-31T05:23:39;19.35;;;6.80;;
24373;SDS011;12498;50.880;12.096;2023-07-31T05:26:05;10.50;;;4.85;;
24373;SDS011;12498;50.880;12.096;2023-07-31T05:28:33;25.35;;;8.13;;
24373;SDS011;12498;50.880;12.096;2023-07-31T05:31:03;15.75;;;5.03;;
24373;SDS011;12498;50.880;12.096;2023-07-31T05:33:29;11.57;;;4.53;;
24373;SDS011;12498;50.880;12.096;2023-07-31T05:35:55;23.90;;;10.25;;
24373;SDS011;12498;50.880;12.096;2023-07-31T05:38:20;39.53;;;14.00;;
24373;SDS011;12498;50.880;12.096;2023-07-31T05:40:46;39.63;;;12.00;;
24373;SDS011;12498;50.880;12.096;2023-07-31T05:43:12;38.42;;;10.25;;
24373;SDS011;12498;50.880;12.096;2023-07-31T05:45:38;27.88;;;7.28;;
24373;SDS011;12498;50.880;12.096;2023-07-31T05:48:05;46.65;;;11.60;;
24373;SDS011;12498;50.880;12.096;2023-07-31T05:50:30;47.85;;;11.35;;
24373;SDS011;12498;50.880;12.096;2023-07-31T05:52:56;30.05;;;9.48;;
24373;SDS011;12498;50.880;12.096;2023-07-31T05:55:22;16.17;;;4.93;;
24373;SDS011;12498;50.880;12.096;2023-07-31T05:57:49;26.33;;;8.25;;
24373;SDS011;12498;50.880;12.096;2023-07-31T06:00:14;19.48;;;6.25;;
24373;SDS011;12498;50.880;12.096;2023-07-31T06:02:40;17.90;;;5.70;;
24373;SDS011;12498;50.880;12.096;2023-07-31T06:05:06;26.95;;;8.13;;
24373;SDS011;12498;50.880;12.096;2023-07-31T06:07:32;18.50;;;5.82;;
24373;SDS011;12498;50.880;12.096;2023-07-31T06:09:57;33.72;;;12.40;;
24373;SDS011;12498;50.880;12.096;2023-07-31T06:12:28;31.83;;;12.02;;
24373;SDS011;12498;50.880;12.096;2023-07-31T06:14:54;17.83;;;7.97;;
24373;SDS011;12498;50.880;12.096;2023-07-31T06:17:20;13.70;;;4.65;;
24373;SDS011;12498;50.880;12.096;2023-07-31T06:19:46;21.75;;;8.20;;
24373;SDS011;12498;50.880;12.096;2023-07-31T06:22:12;20.10;;;5.30;;
24373;SDS011;12498;50.880;12.096;2023-07-31T06:24:37;29.48;;;8.68;;
24373;SDS011;12498;50.880;12.096;2023-07-31T06:27:03;73.38;;;16.00;;
24373;SDS011;12498;50.880;12.096;2023-07-31T06:29:30;22.55;;;6.13;;
24373;SDS011;12498;50.880;12.096;2023-07-31T06:31:56;14.02;;;4.03;;
24373;SDS011;12498;50.880;12.096;2023-07-31T06:34:22;27.67;;;6.47;;
24373;SDS011;12498;50.880;12.096;2023-07-31T06:36:47;35.85;;;8.70;;
24373;SDS011;12498;50.880;12.096;2023-07-31T06:39:13;35.90;;;8.38;;
24373;SDS011;12498;50.880;12.096;2023-07-31T06:41:39;20.75;;;5.60;;
24373;SDS011;12498;50.880;12.096;2023-07-31T06:44:04;28.25;;;7.82;;
24373;SDS011;12498;50.880;12.096;2023-07-31T06:46:30;25.75;;;8.10;;
24373;SDS011;12498;50.880;12.096;2023-07-31T06:48:55;29.65;;;7.90;;
24373;SDS011;12498;50.880;12.096;2023-07-31T06:51:21;26.38;;;6.78;;
24373;SDS011;12498;50.880;12.096;2023-07-31T06:53:47;22.00;;;5.10;;
24373;SDS011;12498;50.880;12.096;2023-07-31T06:56:13;24.08;;;5.35;;
24373;SDS011;12498;50.880;12.096;2023-07-31T06:58:39;21.85;;;5.68;;
24373;SDS011;12498;50.880;12.096;2023-07-31T07:01:04;33.92;;;9.13;;
24373;SDS011;12498;50.880;12.096;2023-07-31T07:03:30;31.48;;;8.13;;
24373;SDS011;12498;50.880;12.096;2023-07-31T07:05:56;19.95;;;6.30;;
24373;SDS011;12498;50.880;12.096;2023-07-31T07:08:21;21.42;;;5.88;;
24373;SDS011;12498;50.880;12.096;2023-07-31T07:10:53;24.98;;;6.82;;
24373;SDS011;12498;50.880;12.096;2023-07-31T07:13:19;22.33;;;8.32;;
24373;SDS011;12498;50.880;12.096;2023-07-31T07:15:47;25.65;;;10.13;;
24373;SDS011;12498;50.880;12.096;2023-07-31T07:18:14;17.60;;;5.90;;
24373;SDS011;12498;50.880;12.096;2023-07-31T07:20:39;12.70;;;3.65;;
24373;SDS011;12498;50.880;12.096;2023-07-31T07:23:05;13.27;;;5.18;;
24373;SDS011;12498;50.880;12.096;2023-07-31T07:25:31;20.90;;;7.95;;
24373;SDS011;12498;50.880;12.096;2023-07-31T07:27:57;13.65;;;5.40;;
24373;SDS011;12498;50.880;12.096;2023-07-31T07:30:22;10.52;;;4.00;;
24373;SDS011;12498;50.880;12.096;2023-07-31T07:32:50;12.85;;;6.38;;
24373;SDS011;12498;50.880;12.096;2023-07-31T07:35:16;22.65;;;11.48;;
24373;SDS011;12498;50.880;12.096;2023-07-31T07:37:41;13.25;;;4.13;;
24373;SDS011;12498;50.880;12.096;2023-07-31T07:40:07;9.43;;;3.47;;
24373;SDS011;12498;50.880;12.096;2023-07-31T07:42:33;10.65;;;3.28;;
24373;SDS011;12498;50.880;12.096;2023-07-31T07:44:59;7.10;;;3.13;;
24373;SDS011;12498;50.880;12.096;2023-07-31T07:47:24;11.43;;;3.50;;
24373;SDS011;12498;50.880;12.096;2023-07-31T07:49:50;24.17;;;12.23;;
24373;SDS011;12498;50.880;12.096;2023-07-31T07:52:16;9.90;;;4.20;;
24373;SDS011;12498;50.880;12.096;2023-07-31T07:54:41;10.63;;;3.60;;
24373;SDS011;12498;50.880;12.096;2023-07-31T07:57:07;12.52;;;3.80;;
24373;SDS011;12498;50.880;12.096;2023-07-31T07:59:32;11.40;;;3.70;;
24373;SDS011;12498;50.880;12.096;2023-07-31T08:01:58;10.18;;;4.03;;
24373;SDS011;12498;50.880;12.096;2023-07-31T08:04:23;9.95;;;3.60;;
24373;SDS011;12498;50.880;12.096;2023-07-31T08:06:49;11.98;;;3.38;;
24373;SDS011;12498;50.880;12.096;2023-07-31T08:09:15;10.82;;;3.20;;
24373;SDS011;12498;50.880;12.096;2023-07-31T08:11:40;13.95;;;3.50;;
24373;SDS011;12498;50.880;12.096;2023-07-31T08:14:06;7.57;;;2.88;;
24373;SDS011;12498;50.880;12.096;2023-07-31T08:16:32;8.50;;;3.03;;
24373;SDS011;12498;50.880;12.096;2023-07-31T08:18:57;7.38;;;2.83;;
24373;SDS011;12498;50.880;12.096;2023-07-31T08:21:23;9.02;;;3.22;;
24373;SDS011;12498;50.880;12.096;2023-07-31T08:23:49;13.18;;;3.80;;
24373;SDS011;12498;50.880;12.096;2023-07-31T08:26:17;9.65;;;3.47;;
24373;SDS011;12498;50.880;12.096;2023-07-31T08:28:44;8.05;;;2.80;;
24373;SDS011;12498;50.880;12.096;2023-07-31T08:31:10;6.38;;;2.92;;
24373;SDS011;12498;50.880;12.096;2023-07-31T08:33:36;7.13;;;2.97;;
24373;SDS011;12498;50.880;12.096;2023-07-31T08:36:02;7.78;;;2.78;;
24373;SDS011;12498;50.880;12.096;2023-07-31T08:38:28;8.57;;;2.83;;
24373;SDS011;12498;50.880;12.096;2023-07-31T08:40:56;12.70;;;5.88;;
24373;SDS011;12498;50.880;12.096;2023-07-31T08:43:22;18.23;;;8.95;;
24373;SDS011;12498;50.880;12.096;2023-07-31T08:45:53;10.43;;;4.10;;
24373;SDS011;12498;50.880;12.096;2023-07-31T08:48:20;8.02;;;2.90;;
24373;SDS011;12498;50.880;12.096;2023-07-31T08:50:47;11.07;;;3.80;;
24373;SDS011;12498;50.880;12.096;2023-07-31T08:53:13;9.10;;;3.13;;
24373;SDS011;12498;50.880;12.096;2023-07-31T08:55:38;9.60;;;2.90;;
24373;SDS011;12498;50.880;12.096;2023-07-31T08:58:05;6.72;;;2.60;;
24373;SDS011;12498;50.880;12.096;2023-07-31T09:00:31;7.97;;;2.67;;
24373;SDS011;12498;50.880;12.096;2023-07-31T09:02:59;8.45;;;2.72;;
24373;SDS011;12498;50.880;12.096;2023-07-31T09:07:53;6.35;;;2.70;;
24373;SDS011;12498;50.880;12.096;2023-07-31T09:10:21;7.85;;;2.45;;
24373;SDS011;12498;50.880;12.096;2023-07-31T09:12:47;8.55;;;2.58;;
24373;SDS011;12498;50.880;12.096;2023-07-31T09:15:14;7.65;;;2.25;;
24373;SDS011;12498;50.880;12.096;2023-07-31T09:17:40;7.60;;;2.50;;
24373;SDS011;12498;50.880;12.096;2023-07-31T09:20:16;11.85;;;3.13;;
24373;SDS011;12498;50.880;12.096;2023-07-31T09:22:43;9.00;;;3.30;;
24373;SDS011;12498;50.880;12.096;2023-07-31T09:25:20;7.15;;;3.10;;
24373;SDS011;12498;50.880;12.096;2023-07-31T09:27:50;6.50;;;2.72;;
24373;SDS011;12498;50.880;12.096;2023-07-31T09:30:20;10.30;;;2.90;;
24373;SDS011;12498;50.880;12.096;2023-07-31T09:32:46;6.47;;;2.80;;
24373;SDS011;12498;50.880;12.096;2023-07-31T09:37:53;7.22;;;3.20;;
24373;SDS011;12498;50.880;12.096;2023-07-31T09:40:27;10.27;;;3.00;;
24373;SDS011;12498;50.880;12.096;2023-07-31T09:42:55;10.90;;;6.28;;
24373;SDS011;12498;50.880;12.096;2023-07-31T09:45:22;8.73;;;3.42;;
24373;SDS011;12498;50.880;12.096;2023-07-31T09:47:48;39.22;;;24.30;;
24373;SDS011;12498;50.880;12.096;2023-07-31T09:50:14;10.43;;;3.38;;
24373;SDS011;12498;50.880;12.096;2023-07-31T09:52:41;6.68;;;3.10;;
24373;SDS011;12498;50.880;12.096;2023-07-31T09:55:07;6.43;;;2.83;;
24373;SDS011;12498;50.880;12.096;2023-07-31T09:57:41;6.43;;;3.17;;
24373;SDS011;12498;50.880;12.096;2023-07-31T10:00:10;5.65;;;3.00;;
24373;SDS011;12498;50.880;12.096;2023-07-31T10:02:37;6.18;;;2.80;;
24373;SDS011;12498;50.880;12.096;2023-07-31T10:05:03;6.18;;;2.85;;
24373;SDS011;12498;50.880;12.096;2023-07-31T10:07:31;7.85;;;2.85;;
24373;SDS011;12498;50.880;12.096;2023-07-31T10:10:01;8.00;;;2.95;;
24373;SDS011;12498;50.880;12.096;2023-07-31T10:12:30;7.97;;;2.92;;
24373;SDS011;12498;50.880;12.096;2023-07-31T10:14:58;6.60;;;2.60;;
24373;SDS011;12498;50.880;12.096;2023-07-31T10:17:25;4.50;;;2.88;;
24373;SDS011;12498;50.880;12.096;2023-07-31T10:19:51;9.40;;;3.00;;
24373;SDS011;12498;50.880;12.096;2023-07-31T10:22:19;6.90;;;3.28;;
24373;SDS011;12498;50.880;12.096;2023-07-31T10:24:46;7.22;;;2.80;;
24373;SDS011;12498;50.880;12.096;2023-07-31T10:27:13;11.50;;;4.00;;
24373;SDS011;12498;50.880;12.096;2023-07-31T10:29:40;8.93;;;3.50;;
24373;SDS011;12498;50.880;12.096;2023-07-31T10:32:08;8.18;;;3.58;;
24373;SDS011;12498;50.880;12.096;2023-07-31T10:34:36;7.53;;;3.40;;
24373;SDS011;12498;50.880;12.096;2023-07-31T10:43:06;8.82;;;3.65;;
24373;SDS011;12498;50.880;12.096;2023-07-31T10:47:51;7.20;;;3.28;;
24373;SDS011;12498;50.880;12.096;2023-07-31T10:50:27;9.38;;;3.10;;
24373;SDS011;12498;50.880;12.096;2023-07-31T10:52:54;7.13;;;3.13;;
24373;SDS011;12498;50.880;12.096;2023-07-31T10:58:05;7.20;;;3.22;;
24373;SDS011;12498;50.880;12.096;2023-07-31T11:00:32;7.78;;;2.90;;
24373;SDS011;12498;50.880;12.096;2023-07-31T11:02:59;9.35;;;3.10;;
24373;SDS011;12498;50.880;12.096;2023-07-31T11:08:12;8.20;;;3.50;;
24373;SDS011;12498;50.880;12.096;2023-07-31T11:10:42;9.95;;;5.72;;
24373;SDS011;12498;50.880;12.096;2023-07-31T11:13:09;24.83;;;11.93;;
24373;SDS011;12498;50.880;12.096;2023-07-31T11:15:35;7.95;;;3.67;;
24373;SDS011;12498;50.880;12.096;2023-07-31T11:18:01;9.68;;;3.33;;
24373;SDS011;12498;50.880;12.096;2023-07-31T11:23:05;7.32;;;3.05;;
24373;SDS011;12498;50.880;12.096;2023-07-31T11:25:32;9.30;;;3.03;;
24373;SDS011;12498;50.880;12.096;2023-07-31T11:28:02;8.93;;;3.13;;
24373;SDS011;12498;50.880;12.096;2023-07-31T11:30:31;9.98;;;2.50;;
24373;SDS011;12498;50.880;12.096;2023-07-31T11:32:57;6.95;;;2.95;;
24373;SDS011;12498;50.880;12.096;2023-07-31T11:35:23;8.50;;;3.03;;
24373;SDS011;12498;50.880;12.096;2023-07-31T11:37:48;8.07;;;2.88;;
24373;SDS011;12498;50.880;12.096;2023-07-31T11:40:14;5.85;;;3.20;;
24373;SDS011;12498;50.880;12.096;2023-07-31T11:42:40;7.90;;;3.00;;
24373;SDS011;12498;50.880;12.096;2023-07-31T11:45:09;6.28;;;3.17;;
24373;SDS011;12498;50.880;12.096;2023-07-31T11:47:36;8.68;;;3.22;;
24373;SDS011;12498;50.880;12.096;2023-07-31T11:50:06;7.97;;;2.78;;
24373;SDS011;12498;50.880;12.096;2023-07-31T11:52:37;6.75;;;2.95;;
24373;SDS011;12498;50.880;12.096;2023-07-31T11:55:09;5.05;;;3.00;;
24373;SDS011;12498;50.880;12.096;2023-07-31T11:57:35;12.18;;;3.30;;
24373;SDS011;12498;50.880;12.096;2023-07-31T12:00:06;6.50;;;3.05;;
24373;SDS011;12498;50.880;12.096;2023-07-31T12:02:34;5.13;;;2.85;;
24373;SDS011;12498;50.880;12.096;2023-07-31T12:05:00;9.32;;;3.30;;
24373;SDS011;12498;50.880;12.096;2023-07-31T12:07:27;9.23;;;3.47;;
24373;SDS011;12498;50.880;12.096;2023-07-31T12:09:56;6.60;;;3.13;;
24373;SDS011;12498;50.880;12.096;2023-07-31T12:12:25;9.05;;;2.78;;
24373;SDS011;12498;50.880;12.096;2023-07-31T12:14:50;6.93;;;2.90;;
24373;SDS011;12498;50.880;12.096;2023-07-31T12:17:17;4.60;;;2.60;;
24373;SDS011;12498;50.880;12.096;2023-07-31T12:19:45;7.88;;;2.80;;
24373;SDS011;12498;50.880;12.096;2023-07-31T12:22:13;5.88;;;2.88;;
24373;SDS011;12498;50.880;12.096;2023-07-31T12:24:41;6.85;;;3.33;;
24373;SDS011;12498;50.880;12.096;2023-07-31T12:27:13;6.70;;;2.95;;
24373;SDS011;12498;50.880;12.096;2023-07-31T12:29:41;5.90;;;2.78;;
24373;SDS011;12498;50.880;12.096;2023-07-31T12:32:24;6.28;;;2.70;;
24373;SDS011;12498;50.880;12.096;2023-07-31T12:34:53;8.35;;;2.85;;
24373;SDS011;12498;50.880;12.096;2023-07-31T12:37:20;7.57;;;3.22;;
24373;SDS011;12498;50.880;12.096;2023-07-31T12:39:46;7.47;;;3.05;;
24373;SDS011;12498;50.880;12.096;2023-07-31T12:42:11;7.50;;;3.30;;
24373;SDS011;12498;50.880;12.096;2023-07-31T12:44:37;4.75;;;2.53;;
24373;SDS011;12498;50.880;12.096;2023-07-31T12:47:03;6.03;;;2.60;;
24373;SDS011;12498;50.880;12.096;2023-07-31T12:49:29;5.43;;;2.88;;
24373;SDS011;12498;50.880;12.096;2023-07-31T12:51:54;7.85;;;2.90;;
24373;SDS011;12498;50.880;12.096;2023-07-31T12:54:20;7.10;;;2.83;;
24373;SDS011;12498;50.880;12.096;2023-07-31T12:56:46;7.90;;;2.70;;
24373;SDS011;12498;50.880;12.096;2023-07-31T12:59:11;7.50;;;2.97;;
24373;SDS011;12498;50.880;12.096;2023-07-31T13:01:37;7.22;;;2.92;;
24373;SDS011;12498;50.880;12.096;2023-07-31T13:04:03;6.97;;;3.03;;
24373;SDS011;12498;50.880;12.096;2023-07-31T13:06:29;8.93;;;2.80;;
24373;SDS011;12498;50.880;12.096;2023-07-31T13:08:54;7.05;;;2.90;;
24373;SDS011;12498;50.880;12.096;2023-07-31T13:11:20;8.57;;;3.33;;
24373;SDS011;12498;50.880;12.096;2023-07-31T13:13:45;9.18;;;3.03;;
24373;SDS011;12498;50.880;12.096;2023-07-31T13:16:11;5.68;;;2.70;;
24373;SDS011;12498;50.880;12.096;2023-07-31T13:18:37;7.10;;;2.95;;
24373;SDS011;12498;50.880;12.096;2023-07-31T13:21:02;7.30;;;3.05;;
24373;SDS011;12498;50.880;12.096;2023-07-31T13:23:28;9.48;;;2.83;;
24373;SDS011;12498;50.880;12.096;2023-07-31T13:25:54;5.63;;;2.63;;
24373;SDS011;12498;50.880;12.096;2023-07-31T13:28:19;4.97;;;2.60;;
24373;SDS011;12498;50.880;12.096;2023-07-31T13:30:45;6.05;;;2.83;;
24373;SDS011;12498;50.880;12.096;2023-07-31T13:33:11;7.32;;;2.72;;
24373;SDS011;12498;50.880;12.096;2023-07-31T13:35:36;4.97;;;2.50;;
24373;SDS011;12498;50.880;12.096;2023-07-31T13:38:02;7.93;;;2.70;;
24373;SDS011;12498;50.880;12.096;2023-07-31T13:40:27;7.80;;;2.97;;
24373;SDS011;12498;50.880;12.096;2023-07-31T13:42:53;8.77;;;2.70;;
24373;SDS011;12498;50.880;12.096;2023-07-31T13:45:19;7.80;;;2.90;;
24373;SDS011;12498;50.880;12.096;2023-07-31T13:47:45;7.65;;;2.78;;
24373;SDS011;12498;50.880;12.096;2023-07-31T13:50:10;6.45;;;3.00;;
24373;SDS011;12498;50.880;12.096;2023-07-31T13:52:36;5.65;;;2.53;;
24373;SDS011;12498;50.880;12.096;2023-07-31T13:55:02;5.25;;;2.97;;
24373;SDS011;12498;50.880;12.096;2023-07-31T13:57:27;6.75;;;2.75;;
24373;SDS011;12498;50.880;12.096;2023-07-31T13:59:53;4.78;;;2.50;;
24373;SDS011;12498;50.880;12.096;2023-07-31T14:02:19;7.88;;;2.85;;
24373;SDS011;12498;50.880;12.096;2023-07-31T14:04:44;9.82;;;3.08;;
24373;SDS011;12498;50.880;12.096;2023-07-31T14:07:10;7.18;;;2.53;;
24373;SDS011;12498;50.880;12.096;2023-07-31T14:09:36;6.30;;;2.60;;
24373;SDS011;12498;50.880;12.096;2023-07-31T14:12:01;5.85;;;2.55;;
24373;SDS011;12498;50.880;12.096;2023-07-31T14:14:27;3.80;;;2.40;;
24373;SDS011;12498;50.880;12.096;2023-07-31T14:16:53;6.68;;;2.78;;
24373;SDS011;12498;50.880;12.096;2023-07-31T14:19:18;5.03;;;2.80;;
24373;SDS011;12498;50.880;12.096;2023-07-31T14:21:45;4.25;;;2.30;;
24373;SDS011;12498;50.880;12.096;2023-07-31T14:24:11;6.45;;;2.65;;
24373;SDS011;12498;50.880;12.096;2023-07-31T14:26:37;11.38;;;2.83;;
24373;SDS011;12498;50.880;12.096;2023-07-31T14:29:02;8.05;;;2.90;;
24373;SDS011;12498;50.880;12.096;2023-07-31T14:31:28;5.90;;;2.53;;
24373;SDS011;12498;50.880;12.096;2023-07-31T14:33:54;5.78;;;3.10;;
24373;SDS011;12498;50.880;12.096;2023-07-31T14:36:19;7.93;;;4.00;;
24373;SDS011;12498;50.880;12.096;2023-07-31T14:38:45;6.32;;;2.80;;
24373;SDS011;12498;50.880;12.096;2023-07-31T14:41:10;5.20;;;2.60;;
24373;SDS011;12498;50.880;12.096;2023-07-31T14:43:36;7.07;;;3.13;;
24373;SDS011;12498;50.880;12.096;2023-07-31T14:46:02;7.53;;;2.92;;
24373;SDS011;12498;50.880;12.096;2023-07-31T14:48:27;5.75;;;3.28;;
24373;SDS011;12498;50.880;12.096;2023-07-31T14:50:54;7.88;;;2.97;;